sensor_id;sensor_type;location;lat;lon;timestamp;P1;durP1;ratioP1;P2;durP2;ratioP2
19679;SDS011;9989;48.962;9.182;2023-12-20T00:01:21;20.70;;;10.23;;
19679;SDS011;9989;48.962;9.182;2023-12-20T00:03:47;19.80;;;11.07;;
19679;SDS011;9989;48.962;9.182;2023-12-20T00:06:13;18.37;;;10.80;;
19679;SDS011;9989;48.962;9.182;2023-12-20T00:08:38;20.57;;;11.07;;
19679;SDS011;9989;48.962;9.182;2023-12-20T00:11:04;18.80;;;10.73;;
19679;SDS011;9989;48.962;9.182;2023-12-20T00:13:29;17.90;;;11.07;;
19679;SDS011;9989;48.962;9.182;2023-12-20T00:15:55;17.53;;;10.97;;
19679;SDS011;9989;48.962;9.182;2023-12-20T00:18:20;17.93;;;10.87;;
19679;SDS011;9989;48.962;9.182;2023-12-20T00:20:46;18.00;;;10.47;;
19679;SDS011;9989;48.962;9.182;2023-12-20T00:23:11;19.53;;;11.50;;
19679;SDS011;9989;48.962;9.182;2023-12-20T00:25:37;19.17;;;11.43;;
19679;SDS011;9989;48.962;9.182;2023-12-20T00:28:03;18.93;;;10.90;;
19679;SDS011;9989;48.962;9.182;2023-12-20T00:30:28;19.97;;;12.07;;
19679;SDS011;9989;48.962;9.182;2023-12-20T00:32:55;22.63;;;12.10;;
19679;SDS011;9989;48.962;9.182;2023-12-20T00:35:21;21.43;;;12.77;;
19679;SDS011;9989;48.962;9.182;2023-12-20T00:37:46;18.47;;;11.30;;
19679;SDS011;9989;48.962;9.182;2023-12-20T00:40:12;20.13;;;12.27;;
19679;SDS011;9989;48.962;9.182;2023-12-20T00:42:37;20.80;;;12.57;;
19679;SDS011;9989;48.962;9.182;2023-12-20T00:45:03;23.00;;;13.20;;
19679;SDS011;9989;48.962;9.182;2023-12-20T00:47:30;28.83;;;15.23;;
19679;SDS011;9989;48.962;9.182;2023-12-20T00:49:55;33.60;;;15.80;;
19679;SDS011;9989;48.962;9.182;2023-12-20T00:52:21;30.27;;;16.17;;
19679;SDS011;9989;48.962;9.182;2023-12-20T00:54:47;26.63;;;15.33;;
19679;SDS011;9989;48.962;9.182;2023-12-20T00:57:13;25.83;;;14.80;;
19679;SDS011;9989;48.962;9.182;2023-12-20T00:59:39;27.90;;;15.37;;
19679;SDS011;9989;48.962;9.182;2023-12-20T01:02:05;25.93;;;13.87;;
19679;SDS011;9989;48.962;9.182;2023-12-20T01:04:30;24.07;;;12.97;;
19679;SDS011;9989;48.962;9.182;2023-12-20T01:06:56;22.73;;;13.03;;
19679;SDS011;9989;48.962;9.182;2023-12-20T01:09:21;21.63;;;13.10;;
19679;SDS011;9989;48.962;9.182;2023-12-20T01:11:51;23.57;;;13.27;;
19679;SDS011;9989;48.962;9.182;2023-12-20T01:14:17;22.53;;;13.40;;
19679;SDS011;9989;48.962;9.182;2023-12-20T01:16:43;20.47;;;11.73;;
19679;SDS011;9989;48.962;9.182;2023-12-20T01:19:09;19.77;;;11.77;;
19679;SDS011;9989;48.962;9.182;2023-12-20T01:21:34;20.03;;;12.10;;
19679;SDS011;9989;48.962;9.182;2023-12-20T01:24:00;18.93;;;11.67;;
19679;SDS011;9989;48.962;9.182;2023-12-20T01:26:25;20.03;;;11.03;;
19679;SDS011;9989;48.962;9.182;2023-12-20T01:28:51;17.77;;;11.07;;
19679;SDS011;9989;48.962;9.182;2023-12-20T01:31:16;18.33;;;10.83;;
19679;SDS011;9989;48.962;9.182;2023-12-20T01:33:42;18.67;;;11.03;;
19679;SDS011;9989;48.962;9.182;2023-12-20T01:36:07;21.03;;;10.87;;
19679;SDS011;9989;48.962;9.182;2023-12-20T01:38:33;17.97;;;10.77;;
19679;SDS011;9989;48.962;9.182;2023-12-20T01:40:59;19.33;;;11.57;;
19679;SDS011;9989;48.962;9.182;2023-12-20T01:43:25;21.23;;;12.93;;
19679;SDS011;9989;48.962;9.182;2023-12-20T01:45:50;17.57;;;10.80;;
19679;SDS011;9989;48.962;9.182;2023-12-20T01:48:16;20.13;;;12.23;;
19679;SDS011;9989;48.962;9.182;2023-12-20T01:50:43;20.70;;;12.03;;
19679;SDS011;9989;48.962;9.182;2023-12-20T01:53:10;25.03;;;13.93;;
19679;SDS011;9989;48.962;9.182;2023-12-20T01:55:40;22.47;;;13.90;;
19679;SDS011;9989;48.962;9.182;2023-12-20T01:58:09;22.90;;;13.70;;
19679;SDS011;9989;48.962;9.182;2023-12-20T02:00:37;22.83;;;13.80;;
19679;SDS011;9989;48.962;9.182;2023-12-20T02:03:03;22.20;;;11.80;;
19679;SDS011;9989;48.962;9.182;2023-12-20T02:05:30;15.17;;;7.93;;
19679;SDS011;9989;48.962;9.182;2023-12-20T02:07:56;15.27;;;8.77;;
19679;SDS011;9989;48.962;9.182;2023-12-20T02:10:22;13.47;;;7.93;;
19679;SDS011;9989;48.962;9.182;2023-12-20T02:12:48;12.60;;;6.93;;
19679;SDS011;9989;48.962;9.182;2023-12-20T02:15:14;11.47;;;6.37;;
19679;SDS011;9989;48.962;9.182;2023-12-20T02:17:40;12.43;;;6.30;;
19679;SDS011;9989;48.962;9.182;2023-12-20T02:20:06;10.33;;;5.03;;
19679;SDS011;9989;48.962;9.182;2023-12-20T02:22:32;8.87;;;4.43;;
19679;SDS011;9989;48.962;9.182;2023-12-20T02:24:57;8.13;;;3.93;;
19679;SDS011;9989;48.962;9.182;2023-12-20T02:27:23;9.10;;;4.13;;
19679;SDS011;9989;48.962;9.182;2023-12-20T02:29:49;8.13;;;3.93;;
19679;SDS011;9989;48.962;9.182;2023-12-20T02:32:19;7.80;;;3.67;;
19679;SDS011;9989;48.962;9.182;2023-12-20T02:34:46;6.07;;;2.57;;
19679;SDS011;9989;48.962;9.182;2023-12-20T02:37:13;5.03;;;2.23;;
19679;SDS011;9989;48.962;9.182;2023-12-20T02:39:38;5.53;;;2.30;;
19679;SDS011;9989;48.962;9.182;2023-12-20T02:42:04;5.20;;;2.23;;
19679;SDS011;9989;48.962;9.182;2023-12-20T02:44:29;4.50;;;1.87;;
19679;SDS011;9989;48.962;9.182;2023-12-20T02:46:55;5.13;;;2.00;;
19679;SDS011;9989;48.962;9.182;2023-12-20T02:49:20;3.47;;;1.70;;
19679;SDS011;9989;48.962;9.182;2023-12-20T02:51:46;4.27;;;1.70;;
19679;SDS011;9989;48.962;9.182;2023-12-20T02:54:12;4.13;;;1.73;;
19679;SDS011;9989;48.962;9.182;2023-12-20T02:56:37;3.33;;;1.70;;
19679;SDS011;9989;48.962;9.182;2023-12-20T02:59:03;3.70;;;1.60;;
19679;SDS011;9989;48.962;9.182;2023-12-20T03:01:30;3.80;;;1.60;;
19679;SDS011;9989;48.962;9.182;2023-12-20T03:03:56;3.50;;;1.60;;
19679;SDS011;9989;48.962;9.182;2023-12-20T03:06:22;3.53;;;1.50;;
19679;SDS011;9989;48.962;9.182;2023-12-20T03:08:48;2.80;;;1.37;;
19679;SDS011;9989;48.962;9.182;2023-12-20T03:11:14;3.50;;;1.50;;
19679;SDS011;9989;48.962;9.182;2023-12-20T03:13:39;3.87;;;1.60;;
19679;SDS011;9989;48.962;9.182;2023-12-20T03:16:08;4.17;;;1.27;;
19679;SDS011;9989;48.962;9.182;2023-12-20T03:18:38;3.13;;;1.50;;
19679;SDS011;9989;48.962;9.182;2023-12-20T03:21:05;2.27;;;1.33;;
19679;SDS011;9989;48.962;9.182;2023-12-20T03:23:30;2.57;;;1.30;;
19679;SDS011;9989;48.962;9.182;2023-12-20T03:25:57;2.63;;;1.20;;
19679;SDS011;9989;48.962;9.182;2023-12-20T03:28:23;2.60;;;1.30;;
19679;SDS011;9989;48.962;9.182;2023-12-20T03:30:49;5.93;;;1.83;;
19679;SDS011;9989;48.962;9.182;2023-12-20T03:33:15;2.77;;;1.27;;
19679;SDS011;9989;48.962;9.182;2023-12-20T03:35:40;2.60;;;1.40;;
19679;SDS011;9989;48.962;9.182;2023-12-20T03:38:06;1.60;;;1.17;;
19679;SDS011;9989;48.962;9.182;2023-12-20T03:40:32;1.83;;;1.00;;
19679;SDS011;9989;48.962;9.182;2023-12-20T03:42:58;3.07;;;1.13;;
19679;SDS011;9989;48.962;9.182;2023-12-20T03:45:23;3.10;;;1.20;;
19679;SDS011;9989;48.962;9.182;2023-12-20T03:47:49;4.60;;;1.00;;
19679;SDS011;9989;48.962;9.182;2023-12-20T03:50:15;1.77;;;1.20;;
19679;SDS011;9989;48.962;9.182;2023-12-20T03:52:40;2.50;;;1.33;;
19679;SDS011;9989;48.962;9.182;2023-12-20T03:55:06;2.93;;;1.40;;
19679;SDS011;9989;48.962;9.182;2023-12-20T03:57:32;2.97;;;1.27;;
19679;SDS011;9989;48.962;9.182;2023-12-20T03:59:57;4.33;;;1.77;;
19679;SDS011;9989;48.962;9.182;2023-12-20T04:02:23;3.23;;;1.60;;
19679;SDS011;9989;48.962;9.182;2023-12-20T04:04:48;1.63;;;1.17;;
19679;SDS011;9989;48.962;9.182;2023-12-20T04:07:14;2.50;;;1.23;;
19679;SDS011;9989;48.962;9.182;2023-12-20T04:09:40;2.07;;;1.07;;
19679;SDS011;9989;48.962;9.182;2023-12-20T04:12:06;3.17;;;1.20;;
19679;SDS011;9989;48.962;9.182;2023-12-20T04:14:32;2.77;;;1.30;;
19679;SDS011;9989;48.962;9.182;2023-12-20T04:16:57;3.63;;;1.37;;
19679;SDS011;9989;48.962;9.182;2023-12-20T04:19:23;3.10;;;1.43;;
19679;SDS011;9989;48.962;9.182;2023-12-20T04:21:49;2.70;;;1.13;;
19679;SDS011;9989;48.962;9.182;2023-12-20T04:24:14;1.30;;;1.07;;
19679;SDS011;9989;48.962;9.182;2023-12-20T04:26:40;2.20;;;0.90;;
19679;SDS011;9989;48.962;9.182;2023-12-20T04:29:05;2.97;;;1.13;;
19679;SDS011;9989;48.962;9.182;2023-12-20T04:31:31;2.87;;;1.23;;
19679;SDS011;9989;48.962;9.182;2023-12-20T04:33:57;3.37;;;1.23;;
19679;SDS011;9989;48.962;9.182;2023-12-20T04:36:22;2.67;;;1.30;;
19679;SDS011;9989;48.962;9.182;2023-12-20T04:38:48;3.07;;;1.33;;
19679;SDS011;9989;48.962;9.182;2023-12-20T04:41:13;3.20;;;1.40;;
19679;SDS011;9989;48.962;9.182;2023-12-20T04:43:43;3.10;;;1.43;;
19679;SDS011;9989;48.962;9.182;2023-12-20T04:46:09;2.60;;;1.40;;
19679;SDS011;9989;48.962;9.182;2023-12-20T04:48:35;3.37;;;1.37;;
19679;SDS011;9989;48.962;9.182;2023-12-20T04:51:00;5.33;;;1.80;;
19679;SDS011;9989;48.962;9.182;2023-12-20T04:53:26;2.17;;;1.23;;
19679;SDS011;9989;48.962;9.182;2023-12-20T04:55:52;3.70;;;1.47;;
19679;SDS011;9989;48.962;9.182;2023-12-20T04:58:18;3.20;;;1.30;;
19679;SDS011;9989;48.962;9.182;2023-12-20T05:00:44;2.60;;;1.37;;
19679;SDS011;9989;48.962;9.182;2023-12-20T05:03:09;3.27;;;1.40;;
19679;SDS011;9989;48.962;9.182;2023-12-20T05:05:35;5.80;;;1.60;;
19679;SDS011;9989;48.962;9.182;2023-12-20T05:08:01;10.07;;;2.40;;
19679;SDS011;9989;48.962;9.182;2023-12-20T05:10:27;12.73;;;3.30;;
19679;SDS011;9989;48.962;9.182;2023-12-20T05:12:52;5.40;;;1.77;;
19679;SDS011;9989;48.962;9.182;2023-12-20T05:15:18;3.83;;;1.87;;
19679;SDS011;9989;48.962;9.182;2023-12-20T05:17:44;4.33;;;1.70;;
19679;SDS011;9989;48.962;9.182;2023-12-20T05:20:10;4.43;;;1.87;;
19679;SDS011;9989;48.962;9.182;2023-12-20T05:22:35;3.37;;;1.60;;
19679;SDS011;9989;48.962;9.182;2023-12-20T05:25:01;4.37;;;2.00;;
19679;SDS011;9989;48.962;9.182;2023-12-20T05:27:27;7.10;;;2.67;;
19679;SDS011;9989;48.962;9.182;2023-12-20T05:29:52;7.07;;;3.50;;
19679;SDS011;9989;48.962;9.182;2023-12-20T05:32:18;12.67;;;7.37;;
19679;SDS011;9989;48.962;9.182;2023-12-20T05:34:43;13.27;;;8.73;;
19679;SDS011;9989;48.962;9.182;2023-12-20T05:37:09;8.03;;;4.20;;
19679;SDS011;9989;48.962;9.182;2023-12-20T05:39:34;6.47;;;3.27;;
19679;SDS011;9989;48.962;9.182;2023-12-20T05:42:00;5.90;;;2.80;;
19679;SDS011;9989;48.962;9.182;2023-12-20T05:44:25;8.53;;;4.40;;
19679;SDS011;9989;48.962;9.182;2023-12-20T05:46:51;9.53;;;5.20;;
19679;SDS011;9989;48.962;9.182;2023-12-20T05:49:17;6.50;;;3.30;;
19679;SDS011;9989;48.962;9.182;2023-12-20T05:51:42;7.23;;;3.13;;
19679;SDS011;9989;48.962;9.182;2023-12-20T05:54:08;5.70;;;2.53;;
19679;SDS011;9989;48.962;9.182;2023-12-20T05:56:34;6.67;;;2.97;;
19679;SDS011;9989;48.962;9.182;2023-12-20T05:59:00;5.93;;;2.57;;
19679;SDS011;9989;48.962;9.182;2023-12-20T06:01:26;5.97;;;2.67;;
19679;SDS011;9989;48.962;9.182;2023-12-20T06:03:51;6.40;;;2.93;;
19679;SDS011;9989;48.962;9.182;2023-12-20T06:06:17;9.77;;;5.77;;
19679;SDS011;9989;48.962;9.182;2023-12-20T06:08:42;6.50;;;3.23;;
19679;SDS011;9989;48.962;9.182;2023-12-20T06:11:08;7.43;;;3.50;;
19679;SDS011;9989;48.962;9.182;2023-12-20T06:13:34;8.47;;;4.90;;
19679;SDS011;9989;48.962;9.182;2023-12-20T06:16:00;8.03;;;4.50;;
19679;SDS011;9989;48.962;9.182;2023-12-20T06:18:26;7.40;;;3.40;;
19679;SDS011;9989;48.962;9.182;2023-12-20T06:20:52;7.23;;;3.47;;
19679;SDS011;9989;48.962;9.182;2023-12-20T06:23:17;5.33;;;2.70;;
19679;SDS011;9989;48.962;9.182;2023-12-20T06:25:43;8.03;;;3.50;;
19679;SDS011;9989;48.962;9.182;2023-12-20T06:28:09;7.30;;;3.60;;
19679;SDS011;9989;48.962;9.182;2023-12-20T06:30:35;7.83;;;3.97;;
19679;SDS011;9989;48.962;9.182;2023-12-20T06:33:01;8.03;;;4.37;;
19679;SDS011;9989;48.962;9.182;2023-12-20T06:35:27;9.00;;;4.70;;
19679;SDS011;9989;48.962;9.182;2023-12-20T06:37:53;9.47;;;5.47;;
19679;SDS011;9989;48.962;9.182;2023-12-20T06:40:18;8.30;;;4.23;;
19679;SDS011;9989;48.962;9.182;2023-12-20T06:42:44;8.13;;;4.07;;
19679;SDS011;9989;48.962;9.182;2023-12-20T06:45:11;8.17;;;4.30;;
19679;SDS011;9989;48.962;9.182;2023-12-20T06:47:37;8.03;;;3.87;;
19679;SDS011;9989;48.962;9.182;2023-12-20T06:50:03;8.97;;;4.40;;
19679;SDS011;9989;48.962;9.182;2023-12-20T06:52:29;8.50;;;4.30;;
19679;SDS011;9989;48.962;9.182;2023-12-20T06:54:54;8.47;;;4.60;;
19679;SDS011;9989;48.962;9.182;2023-12-20T06:57:20;8.97;;;4.93;;
19679;SDS011;9989;48.962;9.182;2023-12-20T06:59:45;8.67;;;4.40;;
19679;SDS011;9989;48.962;9.182;2023-12-20T07:02:11;9.73;;;4.70;;
19679;SDS011;9989;48.962;9.182;2023-12-20T07:04:40;9.07;;;4.93;;
19679;SDS011;9989;48.962;9.182;2023-12-20T07:07:06;10.37;;;5.30;;
19679;SDS011;9989;48.962;9.182;2023-12-20T07:09:32;10.07;;;5.60;;
19679;SDS011;9989;48.962;9.182;2023-12-20T07:11:58;9.33;;;5.00;;
19679;SDS011;9989;48.962;9.182;2023-12-20T07:14:24;10.37;;;5.20;;
19679;SDS011;9989;48.962;9.182;2023-12-20T07:16:49;11.23;;;6.03;;
19679;SDS011;9989;48.962;9.182;2023-12-20T07:19:15;8.70;;;5.03;;
19679;SDS011;9989;48.962;9.182;2023-12-20T07:21:40;9.43;;;4.90;;
19679;SDS011;9989;48.962;9.182;2023-12-20T07:24:06;8.53;;;4.53;;
19679;SDS011;9989;48.962;9.182;2023-12-20T07:26:32;9.40;;;5.40;;
19679;SDS011;9989;48.962;9.182;2023-12-20T07:28:58;11.07;;;5.93;;
19679;SDS011;9989;48.962;9.182;2023-12-20T07:31:24;10.30;;;6.17;;
19679;SDS011;9989;48.962;9.182;2023-12-20T07:33:50;10.63;;;6.37;;
19679;SDS011;9989;48.962;9.182;2023-12-20T07:36:15;9.80;;;6.00;;
19679;SDS011;9989;48.962;9.182;2023-12-20T07:38:41;10.77;;;6.50;;
19679;SDS011;9989;48.962;9.182;2023-12-20T07:41:09;10.87;;;6.40;;
19679;SDS011;9989;48.962;9.182;2023-12-20T07:43:35;10.80;;;6.20;;
19679;SDS011;9989;48.962;9.182;2023-12-20T07:46:07;11.37;;;6.33;;
19679;SDS011;9989;48.962;9.182;2023-12-20T07:48:36;10.77;;;6.47;;
19679;SDS011;9989;48.962;9.182;2023-12-20T07:51:02;12.53;;;7.43;;
19679;SDS011;9989;48.962;9.182;2023-12-20T07:53:29;11.50;;;6.60;;
19679;SDS011;9989;48.962;9.182;2023-12-20T07:55:54;10.70;;;6.30;;
19679;SDS011;9989;48.962;9.182;2023-12-20T07:58:20;12.77;;;6.57;;
19679;SDS011;9989;48.962;9.182;2023-12-20T08:00:46;10.33;;;6.23;;
19679;SDS011;9989;48.962;9.182;2023-12-20T08:03:12;10.07;;;5.83;;
19679;SDS011;9989;48.962;9.182;2023-12-20T08:05:38;11.93;;;5.90;;
19679;SDS011;9989;48.962;9.182;2023-12-20T08:08:06;11.10;;;6.70;;
19679;SDS011;9989;48.962;9.182;2023-12-20T08:10:32;11.73;;;6.27;;
19679;SDS011;9989;48.962;9.182;2023-12-20T08:12:57;8.63;;;4.90;;
19679;SDS011;9989;48.962;9.182;2023-12-20T08:15:23;8.17;;;4.37;;
19679;SDS011;9989;48.962;9.182;2023-12-20T08:17:49;9.33;;;4.67;;
19679;SDS011;9989;48.962;9.182;2023-12-20T08:20:18;8.90;;;3.93;;
19679;SDS011;9989;48.962;9.182;2023-12-20T08:22:43;7.87;;;4.13;;
19679;SDS011;9989;48.962;9.182;2023-12-20T08:25:09;7.50;;;3.30;;
19679;SDS011;9989;48.962;9.182;2023-12-20T08:27:40;8.77;;;3.80;;
19679;SDS011;9989;48.962;9.182;2023-12-20T08:30:08;7.23;;;3.20;;
19679;SDS011;9989;48.962;9.182;2023-12-20T08:32:34;6.00;;;2.57;;
19679;SDS011;9989;48.962;9.182;2023-12-20T08:34:59;6.27;;;3.10;;
19679;SDS011;9989;48.962;9.182;2023-12-20T08:37:25;7.97;;;2.83;;
19679;SDS011;9989;48.962;9.182;2023-12-20T08:39:51;5.90;;;2.47;;
19679;SDS011;9989;48.962;9.182;2023-12-20T08:42:16;5.37;;;2.47;;
19679;SDS011;9989;48.962;9.182;2023-12-20T08:44:42;6.03;;;2.53;;
19679;SDS011;9989;48.962;9.182;2023-12-20T08:47:07;5.50;;;2.40;;
19679;SDS011;9989;48.962;9.182;2023-12-20T08:49:33;5.43;;;2.33;;
19679;SDS011;9989;48.962;9.182;2023-12-20T08:51:59;4.23;;;1.90;;
19679;SDS011;9989;48.962;9.182;2023-12-20T08:54:24;5.30;;;2.00;;
19679;SDS011;9989;48.962;9.182;2023-12-20T08:56:50;4.80;;;1.90;;
19679;SDS011;9989;48.962;9.182;2023-12-20T08:59:15;5.97;;;2.27;;
19679;SDS011;9989;48.962;9.182;2023-12-20T09:01:41;6.40;;;2.60;;
19679;SDS011;9989;48.962;9.182;2023-12-20T09:04:06;5.67;;;2.40;;
19679;SDS011;9989;48.962;9.182;2023-12-20T09:06:32;5.10;;;2.30;;
19679;SDS011;9989;48.962;9.182;2023-12-20T09:08:58;5.20;;;2.30;;
19679;SDS011;9989;48.962;9.182;2023-12-20T09:11:23;5.37;;;2.53;;
19679;SDS011;9989;48.962;9.182;2023-12-20T09:13:49;6.73;;;2.97;;
19679;SDS011;9989;48.962;9.182;2023-12-20T09:16:15;5.63;;;2.77;;
19679;SDS011;9989;48.962;9.182;2023-12-20T09:18:41;6.90;;;2.90;;
19679;SDS011;9989;48.962;9.182;2023-12-20T09:21:07;8.33;;;3.60;;
19679;SDS011;9989;48.962;9.182;2023-12-20T09:23:33;8.10;;;3.20;;
19679;SDS011;9989;48.962;9.182;2023-12-20T09:25:58;7.67;;;3.47;;
19679;SDS011;9989;48.962;9.182;2023-12-20T09:28:24;8.97;;;3.37;;
19679;SDS011;9989;48.962;9.182;2023-12-20T09:30:50;7.13;;;3.10;;
19679;SDS011;9989;48.962;9.182;2023-12-20T09:33:15;6.40;;;2.87;;
19679;SDS011;9989;48.962;9.182;2023-12-20T09:35:41;9.40;;;3.43;;
19679;SDS011;9989;48.962;9.182;2023-12-20T09:38:07;7.37;;;3.10;;
19679;SDS011;9989;48.962;9.182;2023-12-20T09:40:33;6.77;;;2.90;;
19679;SDS011;9989;48.962;9.182;2023-12-20T09:43:04;6.37;;;2.63;;
19679;SDS011;9989;48.962;9.182;2023-12-20T09:45:33;6.93;;;2.67;;
19679;SDS011;9989;48.962;9.182;2023-12-20T09:47:59;5.80;;;2.40;;
19679;SDS011;9989;48.962;9.182;2023-12-20T09:50:25;4.50;;;2.00;;
19679;SDS011;9989;48.962;9.182;2023-12-20T09:52:52;5.60;;;2.20;;
19679;SDS011;9989;48.962;9.182;2023-12-20T09:55:19;4.73;;;2.00;;
19679;SDS011;9989;48.962;9.182;2023-12-20T09:57:46;5.80;;;1.80;;
19679;SDS011;9989;48.962;9.182;2023-12-20T10:00:13;5.77;;;2.20;;
19679;SDS011;9989;48.962;9.182;2023-12-20T10:02:44;6.53;;;1.90;;
19679;SDS011;9989;48.962;9.182;2023-12-20T10:05:30;4.70;;;2.03;;
19679;SDS011;9989;48.962;9.182;2023-12-20T10:07:57;7.27;;;2.13;;
19679;SDS011;9989;48.962;9.182;2023-12-20T10:10:23;4.63;;;1.70;;
19679;SDS011;9989;48.962;9.182;2023-12-20T10:13:05;4.23;;;1.60;;
19679;SDS011;9989;48.962;9.182;2023-12-20T10:15:34;7.37;;;2.03;;
19679;SDS011;9989;48.962;9.182;2023-12-20T10:18:04;6.00;;;2.40;;
19679;SDS011;9989;48.962;9.182;2023-12-20T10:20:31;7.50;;;2.37;;
19679;SDS011;9989;48.962;9.182;2023-12-20T10:22:57;7.77;;;2.10;;
19679;SDS011;9989;48.962;9.182;2023-12-20T10:25:23;8.20;;;1.90;;
19679;SDS011;9989;48.962;9.182;2023-12-20T10:27:50;8.43;;;1.80;;
19679;SDS011;9989;48.962;9.182;2023-12-20T10:30:33;5.47;;;1.60;;
19679;SDS011;9989;48.962;9.182;2023-12-20T10:32:58;5.20;;;2.10;;
19679;SDS011;9989;48.962;9.182;2023-12-20T10:35:24;6.17;;;1.80;;
19679;SDS011;9989;48.962;9.182;2023-12-20T10:37:51;6.73;;;1.80;;
19679;SDS011;9989;48.962;9.182;2023-12-20T10:40:20;7.33;;;1.80;;
19679;SDS011;9989;48.962;9.182;2023-12-20T10:42:46;7.83;;;1.47;;
19679;SDS011;9989;48.962;9.182;2023-12-20T10:45:12;6.87;;;1.63;;
19679;SDS011;9989;48.962;9.182;2023-12-20T10:47:38;4.60;;;1.70;;
19679;SDS011;9989;48.962;9.182;2023-12-20T10:50:05;5.90;;;1.73;;
19679;SDS011;9989;48.962;9.182;2023-12-20T10:52:32;8.77;;;1.90;;
19679;SDS011;9989;48.962;9.182;2023-12-20T10:55:01;5.03;;;1.77;;
19679;SDS011;9989;48.962;9.182;2023-12-20T10:57:26;5.87;;;1.80;;
19679;SDS011;9989;48.962;9.182;2023-12-20T10:59:53;4.10;;;1.47;;
19679;SDS011;9989;48.962;9.182;2023-12-20T11:02:19;5.90;;;1.77;;
19679;SDS011;9989;48.962;9.182;2023-12-20T11:04:53;7.43;;;1.80;;
19679;SDS011;9989;48.962;9.182;2023-12-20T11:07:46;5.77;;;1.90;;
19679;SDS011;9989;48.962;9.182;2023-12-20T11:10:16;5.90;;;1.77;;
19679;SDS011;9989;48.962;9.182;2023-12-20T11:15:35;8.43;;;2.30;;
19679;SDS011;9989;48.962;9.182;2023-12-20T11:18:01;7.70;;;2.63;;
19679;SDS011;9989;48.962;9.182;2023-12-20T11:20:38;6.77;;;2.00;;
19679;SDS011;9989;48.962;9.182;2023-12-20T11:23:05;7.17;;;2.20;;
19679;SDS011;9989;48.962;9.182;2023-12-20T11:25:45;7.50;;;2.30;;
19679;SDS011;9989;48.962;9.182;2023-12-20T11:28:11;8.10;;;2.57;;
19679;SDS011;9989;48.962;9.182;2023-12-20T11:30:47;7.10;;;2.43;;
19679;SDS011;9989;48.962;9.182;2023-12-20T11:33:13;7.23;;;2.43;;
19679;SDS011;9989;48.962;9.182;2023-12-20T11:35:40;9.00;;;2.20;;
19679;SDS011;9989;48.962;9.182;2023-12-20T11:38:09;7.60;;;2.77;;
19679;SDS011;9989;48.962;9.182;2023-12-20T11:40:35;6.97;;;2.23;;
19679;SDS011;9989;48.962;9.182;2023-12-20T11:43:02;7.73;;;2.37;;
19679;SDS011;9989;48.962;9.182;2023-12-20T11:45:29;8.93;;;2.47;;
19679;SDS011;9989;48.962;9.182;2023-12-20T11:47:55;8.37;;;2.50;;
19679;SDS011;9989;48.962;9.182;2023-12-20T11:50:22;11.23;;;2.73;;
19679;SDS011;9989;48.962;9.182;2023-12-20T11:52:49;7.87;;;2.60;;
19679;SDS011;9989;48.962;9.182;2023-12-20T11:55:16;9.10;;;2.63;;
19679;SDS011;9989;48.962;9.182;2023-12-20T11:57:43;8.23;;;2.70;;
19679;SDS011;9989;48.962;9.182;2023-12-20T12:00:14;7.67;;;2.60;;
19679;SDS011;9989;48.962;9.182;2023-12-20T12:02:40;10.47;;;3.00;;
19679;SDS011;9989;48.962;9.182;2023-12-20T12:05:06;9.53;;;3.20;;
19679;SDS011;9989;48.962;9.182;2023-12-20T12:07:33;10.70;;;3.80;;
19679;SDS011;9989;48.962;9.182;2023-12-20T12:09:59;9.23;;;3.17;;
19679;SDS011;9989;48.962;9.182;2023-12-20T12:12:25;10.10;;;3.87;;
19679;SDS011;9989;48.962;9.182;2023-12-20T12:14:52;9.03;;;3.73;;
19679;SDS011;9989;48.962;9.182;2023-12-20T12:17:18;6.90;;;3.03;;
19679;SDS011;9989;48.962;9.182;2023-12-20T12:19:44;8.53;;;2.93;;
19679;SDS011;9989;48.962;9.182;2023-12-20T12:22:13;9.37;;;3.00;;
19679;SDS011;9989;48.962;9.182;2023-12-20T12:24:40;8.90;;;4.40;;
19679;SDS011;9989;48.962;9.182;2023-12-20T12:27:07;11.97;;;3.87;;
19679;SDS011;9989;48.962;9.182;2023-12-20T12:29:33;10.37;;;3.30;;
19679;SDS011;9989;48.962;9.182;2023-12-20T12:31:59;14.63;;;3.30;;
19679;SDS011;9989;48.962;9.182;2023-12-20T12:34:28;8.77;;;2.97;;
19679;SDS011;9989;48.962;9.182;2023-12-20T12:36:54;9.60;;;3.53;;
19679;SDS011;9989;48.962;9.182;2023-12-20T12:39:20;9.23;;;3.00;;
19679;SDS011;9989;48.962;9.182;2023-12-20T12:41:45;10.80;;;3.00;;
19679;SDS011;9989;48.962;9.182;2023-12-20T12:44:11;8.37;;;2.70;;
19679;SDS011;9989;48.962;9.182;2023-12-20T12:46:37;7.47;;;2.90;;
19679;SDS011;9989;48.962;9.182;2023-12-20T12:49:03;8.83;;;2.80;;
19679;SDS011;9989;48.962;9.182;2023-12-20T12:51:29;8.97;;;2.60;;
19679;SDS011;9989;48.962;9.182;2023-12-20T12:53:54;6.27;;;2.93;;
19679;SDS011;9989;48.962;9.182;2023-12-20T12:56:20;9.63;;;3.47;;
19679;SDS011;9989;48.962;9.182;2023-12-20T12:58:47;10.17;;;2.83;;
19679;SDS011;9989;48.962;9.182;2023-12-20T13:01:12;8.10;;;2.20;;
19679;SDS011;9989;48.962;9.182;2023-12-20T13:03:39;7.40;;;3.03;;
19679;SDS011;9989;48.962;9.182;2023-12-20T13:06:04;10.23;;;3.43;;
19679;SDS011;9989;48.962;9.182;2023-12-20T13:08:31;8.30;;;2.23;;
19679;SDS011;9989;48.962;9.182;2023-12-20T13:10:57;8.47;;;2.63;;
19679;SDS011;9989;48.962;9.182;2023-12-20T13:13:25;9.87;;;2.43;;
19679;SDS011;9989;48.962;9.182;2023-12-20T13:15:51;8.43;;;2.67;;
19679;SDS011;9989;48.962;9.182;2023-12-20T13:18:20;10.80;;;2.30;;
19679;SDS011;9989;48.962;9.182;2023-12-20T13:20:46;9.73;;;2.57;;
19679;SDS011;9989;48.962;9.182;2023-12-20T13:23:11;7.20;;;2.20;;
19679;SDS011;9989;48.962;9.182;2023-12-20T13:25:37;10.03;;;2.30;;
19679;SDS011;9989;48.962;9.182;2023-12-20T13:28:03;8.67;;;2.73;;
19679;SDS011;9989;48.962;9.182;2023-12-20T13:30:29;10.07;;;2.93;;
19679;SDS011;9989;48.962;9.182;2023-12-20T13:32:55;12.23;;;4.00;;
19679;SDS011;9989;48.962;9.182;2023-12-20T13:35:20;12.00;;;4.80;;
19679;SDS011;9989;48.962;9.182;2023-12-20T13:37:46;8.67;;;3.13;;
19679;SDS011;9989;48.962;9.182;2023-12-20T13:40:12;15.13;;;3.60;;
19679;SDS011;9989;48.962;9.182;2023-12-20T13:42:38;9.00;;;2.73;;
19679;SDS011;9989;48.962;9.182;2023-12-20T13:45:04;8.37;;;2.50;;
19679;SDS011;9989;48.962;9.182;2023-12-20T13:47:31;8.93;;;2.80;;
19679;SDS011;9989;48.962;9.182;2023-12-20T13:49:57;11.40;;;3.63;;
19679;SDS011;9989;48.962;9.182;2023-12-20T13:52:22;7.57;;;2.60;;
19679;SDS011;9989;48.962;9.182;2023-12-20T13:54:48;9.20;;;3.00;;
19679;SDS011;9989;48.962;9.182;2023-12-20T13:57:14;8.23;;;3.00;;
19679;SDS011;9989;48.962;9.182;2023-12-20T13:59:40;12.27;;;2.97;;
19679;SDS011;9989;48.962;9.182;2023-12-20T14:02:05;11.70;;;3.27;;
19679;SDS011;9989;48.962;9.182;2023-12-20T14:04:31;6.00;;;2.40;;
19679;SDS011;9989;48.962;9.182;2023-12-20T14:06:57;8.47;;;2.77;;
19679;SDS011;9989;48.962;9.182;2023-12-20T14:09:23;7.67;;;2.97;;
19679;SDS011;9989;48.962;9.182;2023-12-20T14:11:48;9.93;;;2.80;;
19679;SDS011;9989;48.962;9.182;2023-12-20T14:14:14;10.23;;;3.13;;
19679;SDS011;9989;48.962;9.182;2023-12-20T14:16:39;7.57;;;2.90;;
19679;SDS011;9989;48.962;9.182;2023-12-20T14:19:06;11.63;;;3.20;;
19679;SDS011;9989;48.962;9.182;2023-12-20T14:21:34;8.60;;;3.27;;
19679;SDS011;9989;48.962;9.182;2023-12-20T14:23:59;10.30;;;3.37;;
19679;SDS011;9989;48.962;9.182;2023-12-20T14:26:25;7.97;;;3.10;;
19679;SDS011;9989;48.962;9.182;2023-12-20T14:28:52;7.27;;;2.70;;
19679;SDS011;9989;48.962;9.182;2023-12-20T14:31:18;11.40;;;4.70;;
19679;SDS011;9989;48.962;9.182;2023-12-20T14:33:44;12.53;;;3.73;;
19679;SDS011;9989;48.962;9.182;2023-12-20T14:36:11;7.63;;;3.30;;
19679;SDS011;9989;48.962;9.182;2023-12-20T14:38:36;8.97;;;3.23;;
19679;SDS011;9989;48.962;9.182;2023-12-20T14:41:02;9.40;;;3.00;;
19679;SDS011;9989;48.962;9.182;2023-12-20T14:43:33;14.17;;;4.00;;
19679;SDS011;9989;48.962;9.182;2023-12-20T14:45:59;9.30;;;3.30;;
19679;SDS011;9989;48.962;9.182;2023-12-20T14:48:24;14.87;;;3.20;;
19679;SDS011;9989;48.962;9.182;2023-12-20T14:50:52;8.63;;;3.13;;
19679;SDS011;9989;48.962;9.182;2023-12-20T14:53:19;11.73;;;3.40;;